sensor_id;sensor_type;location;lat;lon;timestamp;P1;durP1;ratioP1;P2;durP2;ratioP2
51020;SDS011;38907;45.562;8.856;2022-12-11T00:04:52;0.60;;;0.60;;
51020;SDS011;38907;45.562;8.856;2022-12-11T00:09:55;0.80;;;0.57;;
51020;SDS011;38907;45.562;8.856;2022-12-11T00:14:57;1.23;;;1.02;;
51020;SDS011;38907;45.562;8.856;2022-12-11T00:19:59;2.03;;;0.93;;
51020;SDS011;38907;45.562;8.856;2022-12-11T00:25:03;1.08;;;0.80;;
51020;SDS011;38907;45.562;8.856;2022-12-11T00:30:06;0.60;;;0.60;;
51020;SDS011;38907;45.562;8.856;2022-12-11T00:35:08;0.50;;;0.50;;
51020;SDS011;38907;45.562;8.856;2022-12-11T00:40:12;0.80;;;0.80;;
51020;SDS011;38907;45.562;8.856;2022-12-11T00:45:14;0.68;;;0.60;;
51020;SDS011;38907;45.562;8.856;2022-12-11T00:50:16;0.80;;;0.75;;
51020;SDS011;38907;45.562;8.856;2022-12-11T00:55:19;0.52;;;0.50;;
51020;SDS011;38907;45.562;8.856;2022-12-11T01:00:21;1.15;;;0.80;;
51020;SDS011;38907;45.562;8.856;2022-12-11T01:05:24;1.80;;;0.85;;
51020;SDS011;38907;45.562;8.856;2022-12-11T01:10:27;1.88;;;1.10;;
51020;SDS011;38907;45.562;8.856;2022-12-11T01:15:29;0.95;;;0.70;;
51020;SDS011;38907;45.562;8.856;2022-12-11T01:20:33;1.10;;;1.00;;
51020;SDS011;38907;45.562;8.856;2022-12-11T01:25:39;1.73;;;0.88;;
51020;SDS011;38907;45.562;8.856;2022-12-11T01:30:41;0.82;;;0.63;;
51020;SDS011;38907;45.562;8.856;2022-12-11T01:35:43;1.08;;;0.80;;
51020;SDS011;38907;45.562;8.856;2022-12-11T01:40:46;1.45;;;0.80;;
51020;SDS011;38907;45.562;8.856;2022-12-11T01:45:48;0.85;;;0.70;;
51020;SDS011;38907;45.562;8.856;2022-12-11T01:50:51;0.60;;;0.60;;
51020;SDS011;38907;45.562;8.856;2022-12-11T01:55:56;0.60;;;0.55;;
51020;SDS011;38907;45.562;8.856;2022-12-11T02:00:59;0.60;;;0.60;;
51020;SDS011;38907;45.562;8.856;2022-12-11T02:06:02;0.57;;;0.57;;
51020;SDS011;38907;45.562;8.856;2022-12-11T02:11:08;0.82;;;0.60;;
51020;SDS011;38907;45.562;8.856;2022-12-11T02:16:15;1.08;;;0.73;;
51020;SDS011;38907;45.562;8.856;2022-12-11T02:21:26;0.60;;;0.60;;
51020;SDS011;38907;45.562;8.856;2022-12-11T02:26:49;0.73;;;0.68;;
51020;SDS011;38907;45.562;8.856;2022-12-11T02:32:03;0.68;;;0.68;;
51020;SDS011;38907;45.562;8.856;2022-12-11T02:37:11;0.82;;;0.63;;
51020;SDS011;38907;45.562;8.856;2022-12-11T02:42:19;0.63;;;0.63;;
51020;SDS011;38907;45.562;8.856;2022-12-11T02:47:24;1.25;;;0.70;;
51020;SDS011;38907;45.562;8.856;2022-12-11T02:52:28;0.80;;;0.80;;
51020;SDS011;38907;45.562;8.856;2022-12-11T02:57:35;0.73;;;0.60;;
51020;SDS011;38907;45.562;8.856;2022-12-11T03:02:43;0.77;;;0.70;;
51020;SDS011;38907;45.562;8.856;2022-12-11T03:07:46;0.52;;;0.52;;
51020;SDS011;38907;45.562;8.856;2022-12-11T03:12:49;0.50;;;0.50;;
51020;SDS011;38907;45.562;8.856;2022-12-11T03:17:57;0.60;;;0.60;;
51020;SDS011;38907;45.562;8.856;2022-12-11T03:23:06;0.68;;;0.68;;
51020;SDS011;38907;45.562;8.856;2022-12-11T03:28:18;0.88;;;0.80;;
51020;SDS011;38907;45.562;8.856;2022-12-11T03:33:28;0.60;;;0.60;;
51020;SDS011;38907;45.562;8.856;2022-12-11T03:38:35;0.82;;;0.60;;
51020;SDS011;38907;45.562;8.856;2022-12-11T03:43:41;0.70;;;0.70;;
51020;SDS011;38907;45.562;8.856;2022-12-11T03:48:45;0.80;;;0.70;;
51020;SDS011;38907;45.562;8.856;2022-12-11T03:53:49;1.15;;;0.82;;
51020;SDS011;38907;45.562;8.856;2022-12-11T03:58:52;0.73;;;0.73;;
51020;SDS011;38907;45.562;8.856;2022-12-11T04:03:55;0.65;;;0.60;;
51020;SDS011;38907;45.562;8.856;2022-12-11T04:08:57;0.60;;;0.55;;
51020;SDS011;38907;45.562;8.856;2022-12-11T04:13:59;1.70;;;0.70;;
51020;SDS011;38907;45.562;8.856;2022-12-11T04:19:20;0.65;;;0.65;;
51020;SDS011;38907;45.562;8.856;2022-12-11T04:24:40;0.90;;;0.70;;
51020;SDS011;38907;45.562;8.856;2022-12-11T04:29:42;4.80;;;0.68;;
51020;SDS011;38907;45.562;8.856;2022-12-11T04:34:45;0.70;;;0.70;;
51020;SDS011;38907;45.562;8.856;2022-12-11T04:39:47;1.42;;;0.65;;
51020;SDS011;38907;45.562;8.856;2022-12-11T04:44:49;0.73;;;0.70;;
51020;SDS011;38907;45.562;8.856;2022-12-11T04:49:52;2.03;;;0.60;;
51020;SDS011;38907;45.562;8.856;2022-12-11T04:54:54;0.57;;;0.57;;
51020;SDS011;38907;45.562;8.856;2022-12-11T04:59:56;0.82;;;0.80;;
51020;SDS011;38907;45.562;8.856;2022-12-11T05:05:00;0.73;;;0.70;;
51020;SDS011;38907;45.562;8.856;2022-12-11T05:10:03;0.82;;;0.70;;
51020;SDS011;38907;45.562;8.856;2022-12-11T05:15:06;0.70;;;0.70;;
51020;SDS011;38907;45.562;8.856;2022-12-11T05:20:10;0.77;;;0.77;;
51020;SDS011;38907;45.562;8.856;2022-12-11T05:25:12;0.90;;;0.80;;
51020;SDS011;38907;45.562;8.856;2022-12-11T05:30:14;0.70;;;0.70;;
51020;SDS011;38907;45.562;8.856;2022-12-11T05:35:17;0.70;;;0.70;;
51020;SDS011;38907;45.562;8.856;2022-12-11T05:40:19;1.90;;;0.90;;
51020;SDS011;38907;45.562;8.856;2022-12-11T05:45:21;1.52;;;0.70;;
51020;SDS011;38907;45.562;8.856;2022-12-11T05:50:24;0.68;;;0.60;;
51020;SDS011;38907;45.562;8.856;2022-12-11T05:55:26;0.93;;;0.77;;
51020;SDS011;38907;45.562;8.856;2022-12-11T06:00:28;0.60;;;0.60;;
51020;SDS011;38907;45.562;8.856;2022-12-11T06:05:31;1.00;;;0.80;;
51020;SDS011;38907;45.562;8.856;2022-12-11T06:10:43;1.45;;;0.90;;
51020;SDS011;38907;45.562;8.856;2022-12-11T06:15:45;0.70;;;0.70;;
51020;SDS011;38907;45.562;8.856;2022-12-11T06:20:48;0.80;;;0.80;;
51020;SDS011;38907;45.562;8.856;2022-12-11T06:25:50;1.52;;;0.90;;
51020;SDS011;38907;45.562;8.856;2022-12-11T06:30:52;0.85;;;0.85;;
51020;SDS011;38907;45.562;8.856;2022-12-11T06:35:55;1.08;;;0.90;;
51020;SDS011;38907;45.562;8.856;2022-12-11T06:41:01;0.73;;;0.68;;
51020;SDS011;38907;45.562;8.856;2022-12-11T06:46:05;1.17;;;0.73;;
51020;SDS011;38907;45.562;8.856;2022-12-11T06:51:09;0.60;;;0.60;;
51020;SDS011;38907;45.562;8.856;2022-12-11T06:56:13;1.38;;;0.80;;
51020;SDS011;38907;45.562;8.856;2022-12-11T07:01:16;1.85;;;1.40;;
51020;SDS011;38907;45.562;8.856;2022-12-11T07:06:21;5.28;;;1.17;;
51020;SDS011;38907;45.562;8.856;2022-12-11T07:11:24;1.50;;;0.90;;
51020;SDS011;38907;45.562;8.856;2022-12-11T07:16:25;2.53;;;1.10;;
51020;SDS011;38907;45.562;8.856;2022-12-11T07:21:29;0.98;;;0.88;;
51020;SDS011;38907;45.562;8.856;2022-12-11T07:26:31;1.00;;;0.90;;
51020;SDS011;38907;45.562;8.856;2022-12-11T07:31:33;1.15;;;0.90;;
51020;SDS011;38907;45.562;8.856;2022-12-11T07:36:36;1.35;;;1.00;;
51020;SDS011;38907;45.562;8.856;2022-12-11T07:41:38;2.03;;;1.02;;
51020;SDS011;38907;45.562;8.856;2022-12-11T07:46:40;2.88;;;1.00;;
51020;SDS011;38907;45.562;8.856;2022-12-11T07:51:43;0.75;;;0.75;;
51020;SDS011;38907;45.562;8.856;2022-12-11T07:56:45;2.17;;;1.17;;
51020;SDS011;38907;45.562;8.856;2022-12-11T08:01:48;1.25;;;1.02;;
51020;SDS011;38907;45.562;8.856;2022-12-11T08:06:51;2.67;;;1.40;;
51020;SDS011;38907;45.562;8.856;2022-12-11T08:11:53;5.18;;;1.30;;
51020;SDS011;38907;45.562;8.856;2022-12-11T08:16:55;6.57;;;1.33;;
51020;SDS011;38907;45.562;8.856;2022-12-11T08:22:00;1.75;;;1.10;;
51020;SDS011;38907;45.562;8.856;2022-12-11T08:27:02;4.45;;;2.67;;
51020;SDS011;38907;45.562;8.856;2022-12-11T08:32:04;1.70;;;1.33;;
51020;SDS011;38907;45.562;8.856;2022-12-11T08:37:07;4.65;;;1.30;;
51020;SDS011;38907;45.562;8.856;2022-12-11T08:42:09;2.33;;;1.83;;
51020;SDS011;38907;45.562;8.856;2022-12-11T08:47:11;1.10;;;0.98;;
51020;SDS011;38907;45.562;8.856;2022-12-11T08:52:15;1.60;;;1.20;;
51020;SDS011;38907;45.562;8.856;2022-12-11T08:57:17;2.03;;;1.52;;
51020;SDS011;38907;45.562;8.856;2022-12-11T09:02:19;1.60;;;1.42;;
51020;SDS011;38907;45.562;8.856;2022-12-11T09:07:23;2.63;;;1.63;;
51020;SDS011;38907;45.562;8.856;2022-12-11T09:17:27;1.58;;;1.23;;
51020;SDS011;38907;45.562;8.856;2022-12-11T09:22:32;1.70;;;1.05;;
51020;SDS011;38907;45.562;8.856;2022-12-11T09:27:34;1.48;;;1.30;;
51020;SDS011;38907;45.562;8.856;2022-12-11T09:32:35;1.85;;;1.17;;
51020;SDS011;38907;45.562;8.856;2022-12-11T09:37:40;1.20;;;1.10;;
51020;SDS011;38907;45.562;8.856;2022-12-11T09:42:46;1.15;;;1.05;;
51020;SDS011;38907;45.562;8.856;2022-12-11T09:47:54;2.28;;;1.27;;
51020;SDS011;38907;45.562;8.856;2022-12-11T09:53:01;2.00;;;1.48;;
51020;SDS011;38907;45.562;8.856;2022-12-11T09:58:11;1.60;;;1.10;;
51020;SDS011;38907;45.562;8.856;2022-12-11T10:08:49;1.77;;;1.08;;
51020;SDS011;38907;45.562;8.856;2022-12-11T10:14:02;1.30;;;1.20;;
51020;SDS011;38907;45.562;8.856;2022-12-11T10:19:10;1.85;;;1.48;;
51020;SDS011;38907;45.562;8.856;2022-12-11T10:24:21;1.30;;;1.00;;
51020;SDS011;38907;45.562;8.856;2022-12-11T10:29:29;2.15;;;1.20;;
51020;SDS011;38907;45.562;8.856;2022-12-11T10:34:32;1.37;;;1.10;;
51020;SDS011;38907;45.562;8.856;2022-12-11T10:39:38;0.90;;;0.80;;
51020;SDS011;38907;45.562;8.856;2022-12-11T10:44:53;8.32;;;1.20;;
51020;SDS011;38907;45.562;8.856;2022-12-11T10:49:57;1.75;;;1.40;;
51020;SDS011;38907;45.562;8.856;2022-12-11T10:55:05;2.25;;;1.75;;
51020;SDS011;38907;45.562;8.856;2022-12-11T11:00:26;3.15;;;1.80;;
51020;SDS011;38907;45.562;8.856;2022-12-11T11:10:38;1.40;;;1.20;;
51020;SDS011;38907;45.562;8.856;2022-12-11T11:15:57;3.30;;;1.95;;
51020;SDS011;38907;45.562;8.856;2022-12-11T11:21:01;3.58;;;2.55;;
51020;SDS011;38907;45.562;8.856;2022-12-11T11:26:06;5.00;;;3.50;;
51020;SDS011;38907;45.562;8.856;2022-12-11T11:31:10;1.35;;;1.25;;
51020;SDS011;38907;45.562;8.856;2022-12-11T11:36:18;1.98;;;1.35;;
51020;SDS011;38907;45.562;8.856;2022-12-11T11:41:26;2.03;;;1.20;;
51020;SDS011;38907;45.562;8.856;2022-12-11T11:46:36;2.00;;;1.30;;
51020;SDS011;38907;45.562;8.856;2022-12-11T11:51:44;2.20;;;1.83;;
51020;SDS011;38907;45.562;8.856;2022-12-11T11:56:55;1.67;;;1.20;;
51020;SDS011;38907;45.562;8.856;2022-12-11T12:01:58;2.33;;;1.30;;
51020;SDS011;38907;45.562;8.856;2022-12-11T12:07:15;1.77;;;1.60;;
51020;SDS011;38907;45.562;8.856;2022-12-11T12:12:28;3.55;;;2.63;;
51020;SDS011;38907;45.562;8.856;2022-12-11T12:17:42;1.77;;;1.30;;
51020;SDS011;38907;45.562;8.856;2022-12-11T12:22:54;1.15;;;0.98;;
51020;SDS011;38907;45.562;8.856;2022-12-11T12:28:09;1.83;;;1.65;;
51020;SDS011;38907;45.562;8.856;2022-12-11T12:33:25;2.00;;;1.42;;
51020;SDS011;38907;45.562;8.856;2022-12-11T12:38:40;0.98;;;0.88;;
51020;SDS011;38907;45.562;8.856;2022-12-11T12:44:02;2.22;;;1.05;;
51020;SDS011;38907;45.562;8.856;2022-12-11T12:49:13;1.25;;;1.00;;
51020;SDS011;38907;45.562;8.856;2022-12-11T12:54:19;1.92;;;1.30;;
51020;SDS011;38907;45.562;8.856;2022-12-11T12:59:26;3.72;;;2.95;;
51020;SDS011;38907;45.562;8.856;2022-12-11T13:04:36;2.53;;;1.73;;
51020;SDS011;38907;45.562;8.856;2022-12-11T13:09:41;1.38;;;1.20;;
51020;SDS011;38907;45.562;8.856;2022-12-11T13:14:46;2.03;;;1.47;;
51020;SDS011;38907;45.562;8.856;2022-12-11T13:20:14;4.43;;;3.03;;
51020;SDS011;38907;45.562;8.856;2022-12-11T13:25:20;6.82;;;4.50;;
51020;SDS011;38907;45.562;8.856;2022-12-11T13:30:25;4.47;;;4.00;;
51020;SDS011;38907;45.562;8.856;2022-12-11T13:35:29;4.50;;;3.50;;
51020;SDS011;38907;45.562;8.856;2022-12-11T13:40:35;2.03;;;1.38;;
51020;SDS011;38907;45.562;8.856;2022-12-11T13:45:44;1.33;;;1.10;;
51020;SDS011;38907;45.562;8.856;2022-12-11T13:50:48;3.85;;;3.45;;
51020;SDS011;38907;45.562;8.856;2022-12-11T13:55:56;7.10;;;5.72;;
51020;SDS011;38907;45.562;8.856;2022-12-11T14:01:03;4.93;;;3.65;;
51020;SDS011;38907;45.562;8.856;2022-12-11T14:06:11;4.85;;;2.83;;
51020;SDS011;38907;45.562;8.856;2022-12-11T14:11:14;2.15;;;1.20;;
51020;SDS011;38907;45.562;8.856;2022-12-11T14:16:23;1.98;;;1.70;;
51020;SDS011;38907;45.562;8.856;2022-12-11T14:21:27;2.63;;;1.58;;
51020;SDS011;38907;45.562;8.856;2022-12-11T14:26:29;1.83;;;1.65;;
51020;SDS011;38907;45.562;8.856;2022-12-11T14:31:35;2.47;;;1.60;;
51020;SDS011;38907;45.562;8.856;2022-12-11T14:36:41;1.30;;;1.20;;
51020;SDS011;38907;45.562;8.856;2022-12-11T14:41:52;1.58;;;1.13;;
51020;SDS011;38907;45.562;8.856;2022-12-11T14:47:01;1.83;;;1.45;;
51020;SDS011;38907;45.562;8.856;2022-12-11T14:52:05;1.60;;;1.20;;
51020;SDS011;38907;45.562;8.856;2022-12-11T14:57:15;6.70;;;3.53;;
51020;SDS011;38907;45.562;8.856;2022-12-11T15:02:22;9.65;;;5.72;;
51020;SDS011;38907;45.562;8.856;2022-12-11T15:07:26;11.90;;;8.30;;
51020;SDS011;38907;45.562;8.856;2022-12-11T15:12:28;17.40;;;9.98;;
51020;SDS011;38907;45.562;8.856;2022-12-11T15:17:33;12.77;;;8.75;;
51020;SDS011;38907;45.562;8.856;2022-12-11T15:22:36;12.70;;;8.48;;
51020;SDS011;38907;45.562;8.856;2022-12-11T15:27:42;13.50;;;9.20;;
51020;SDS011;38907;45.562;8.856;2022-12-11T15:32:45;15.10;;;10.02;;
51020;SDS011;38907;45.562;8.856;2022-12-11T15:37:50;16.13;;;9.45;;
51020;SDS011;38907;45.562;8.856;2022-12-11T15:42:53;18.20;;;11.50;;
51020;SDS011;38907;45.562;8.856;2022-12-11T15:47:57;17.27;;;11.88;;
51020;SDS011;38907;45.562;8.856;2022-12-11T15:52:59;16.60;;;10.38;;
51020;SDS011;38907;45.562;8.856;2022-12-11T15:58:02;16.52;;;9.75;;
51020;SDS011;38907;45.562;8.856;2022-12-11T16:03:11;19.20;;;11.45;;
51020;SDS011;38907;45.562;8.856;2022-12-11T16:08:14;23.90;;;12.60;;
51020;SDS011;38907;45.562;8.856;2022-12-11T16:13:19;33.47;;;15.80;;
51020;SDS011;38907;45.562;8.856;2022-12-11T16:18:23;31.25;;;16.38;;
51020;SDS011;38907;45.562;8.856;2022-12-11T16:23:25;22.67;;;15.00;;
51020;SDS011;38907;45.562;8.856;2022-12-11T16:28:28;27.05;;;15.85;;
51020;SDS011;38907;45.562;8.856;2022-12-11T16:33:33;26.80;;;16.23;;
51020;SDS011;38907;45.562;8.856;2022-12-11T16:38:37;25.45;;;14.95;;
51020;SDS011;38907;45.562;8.856;2022-12-11T16:48:45;23.85;;;14.68;;
51020;SDS011;38907;45.562;8.856;2022-12-11T16:53:47;20.58;;;12.40;;
51020;SDS011;38907;45.562;8.856;2022-12-11T16:58:49;23.20;;;12.88;;
51020;SDS011;38907;45.562;8.856;2022-12-11T17:03:53;43.63;;;20.92;;
51020;SDS011;38907;45.562;8.856;2022-12-11T17:08:55;29.20;;;17.40;;
51020;SDS011;38907;45.562;8.856;2022-12-11T17:13:57;36.75;;;21.85;;
51020;SDS011;38907;45.562;8.856;2022-12-11T17:19:01;37.55;;;21.08;;
51020;SDS011;38907;45.562;8.856;2022-12-11T17:24:06;40.67;;;21.33;;
51020;SDS011;38907;45.562;8.856;2022-12-11T17:29:10;38.83;;;21.27;;
51020;SDS011;38907;45.562;8.856;2022-12-11T17:34:15;31.30;;;17.58;;
51020;SDS011;38907;45.562;8.856;2022-12-11T17:39:18;34.08;;;18.40;;
51020;SDS011;38907;45.562;8.856;2022-12-11T17:44:19;31.55;;;17.50;;
51020;SDS011;38907;45.562;8.856;2022-12-11T17:49:23;28.40;;;17.23;;
51020;SDS011;38907;45.562;8.856;2022-12-11T17:54:25;27.30;;;16.65;;
51020;SDS011;38907;45.562;8.856;2022-12-11T17:59:26;26.15;;;16.08;;
51020;SDS011;38907;45.562;8.856;2022-12-11T18:04:30;26.52;;;16.58;;
51020;SDS011;38907;45.562;8.856;2022-12-11T18:09:32;27.55;;;16.25;;
51020;SDS011;38907;45.562;8.856;2022-12-11T18:14:34;26.70;;;15.18;;
51020;SDS011;38907;45.562;8.856;2022-12-11T18:19:38;30.85;;;17.73;;
51020;SDS011;38907;45.562;8.856;2022-12-11T18:24:40;36.10;;;21.63;;
51020;SDS011;38907;45.562;8.856;2022-12-11T18:29:42;42.40;;;22.95;;
51020;SDS011;38907;45.562;8.856;2022-12-11T18:34:45;52.03;;;28.50;;
51020;SDS011;38907;45.562;8.856;2022-12-11T18:39:47;48.53;;;26.73;;
51020;SDS011;38907;45.562;8.856;2022-12-11T18:44:49;30.63;;;17.00;;
51020;SDS011;38907;45.562;8.856;2022-12-11T18:49:52;28.25;;;15.68;;
51020;SDS011;38907;45.562;8.856;2022-12-11T18:54:54;25.92;;;15.95;;
51020;SDS011;38907;45.562;8.856;2022-12-11T18:59:56;24.50;;;14.38;;
51020;SDS011;38907;45.562;8.856;2022-12-11T19:05:03;23.27;;;14.45;;
51020;SDS011;38907;45.562;8.856;2022-12-11T19:10:05;23.20;;;14.35;;
51020;SDS011;38907;45.562;8.856;2022-12-11T19:15:08;20.75;;;13.50;;
51020;SDS011;38907;45.562;8.856;2022-12-11T19:20:12;21.17;;;12.47;;
51020;SDS011;38907;45.562;8.856;2022-12-11T19:25:14;23.63;;;14.30;;
51020;SDS011;38907;45.562;8.856;2022-12-11T19:30:16;32.55;;;19.85;;
51020;SDS011;38907;45.562;8.856;2022-12-11T19:35:19;38.90;;;21.77;;
51020;SDS011;38907;45.562;8.856;2022-12-11T19:40:21;37.20;;;22.50;;
51020;SDS011;38907;45.562;8.856;2022-12-11T19:50:28;63.97;;;39.13;;
51020;SDS011;38907;45.562;8.856;2022-12-11T19:55:30;51.45;;;31.25;;
51020;SDS011;38907;45.562;8.856;2022-12-11T20:00:34;57.97;;;34.28;;
51020;SDS011;38907;45.562;8.856;2022-12-11T20:05:38;60.33;;;37.20;;
51020;SDS011;38907;45.562;8.856;2022-12-11T20:10:40;59.08;;;35.55;;
51020;SDS011;38907;45.562;8.856;2022-12-11T20:15:43;50.17;;;29.63;;
51020;SDS011;38907;45.562;8.856;2022-12-11T20:20:46;48.83;;;29.13;;
51020;SDS011;38907;45.562;8.856;2022-12-11T20:25:48;48.97;;;28.85;;
51020;SDS011;38907;45.562;8.856;2022-12-11T20:30:50;54.97;;;31.65;;
51020;SDS011;38907;45.562;8.856;2022-12-11T20:35:53;48.20;;;28.98;;
51020;SDS011;38907;45.562;8.856;2022-12-11T20:40:55;46.78;;;28.83;;
51020;SDS011;38907;45.562;8.856;2022-12-11T20:45:57;52.88;;;30.65;;
51020;SDS011;38907;45.562;8.856;2022-12-11T20:51:00;42.60;;;25.52;;
51020;SDS011;38907;45.562;8.856;2022-12-11T20:56:07;31.75;;;18.95;;
51020;SDS011;38907;45.562;8.856;2022-12-11T21:01:12;26.27;;;16.65;;
51020;SDS011;38907;45.562;8.856;2022-12-11T21:06:20;44.38;;;24.92;;
51020;SDS011;38907;45.562;8.856;2022-12-11T21:11:24;35.58;;;21.08;;
51020;SDS011;38907;45.562;8.856;2022-12-11T21:16:26;36.20;;;18.73;;
51020;SDS011;38907;45.562;8.856;2022-12-11T21:21:31;35.45;;;19.17;;
51020;SDS011;38907;45.562;8.856;2022-12-11T21:26:35;38.65;;;24.08;;
51020;SDS011;38907;45.562;8.856;2022-12-11T21:31:37;30.23;;;17.98;;
51020;SDS011;38907;45.562;8.856;2022-12-11T21:36:41;30.98;;;19.58;;
51020;SDS011;38907;45.562;8.856;2022-12-11T21:41:42;30.73;;;19.33;;
51020;SDS011;38907;45.562;8.856;2022-12-11T21:46:45;28.98;;;19.23;;
51020;SDS011;38907;45.562;8.856;2022-12-11T21:51:48;28.52;;;19.08;;
51020;SDS011;38907;45.562;8.856;2022-12-11T21:56:50;25.90;;;17.02;;
51020;SDS011;38907;45.562;8.856;2022-12-11T22:01:53;27.77;;;16.60;;
51020;SDS011;38907;45.562;8.856;2022-12-11T22:06:56;34.05;;;20.23;;
51020;SDS011;38907;45.562;8.856;2022-12-11T22:11:58;31.70;;;20.67;;
51020;SDS011;38907;45.562;8.856;2022-12-11T22:17:00;211.88;;;80.63;;
51020;SDS011;38907;45.562;8.856;2022-12-11T22:22:03;94.05;;;40.92;;
51020;SDS011;38907;45.562;8.856;2022-12-11T22:27:05;47.22;;;25.85;;
51020;SDS011;38907;45.562;8.856;2022-12-11T22:32:07;37.30;;;23.25;;
51020;SDS011;38907;45.562;8.856;2022-12-11T22:37:10;34.97;;;20.98;;
51020;SDS011;38907;45.562;8.856;2022-12-11T22:42:12;39.78;;;22.48;;
51020;SDS011;38907;45.562;8.856;2022-12-11T22:47:14;35.20;;;20.58;;
51020;SDS011;38907;45.562;8.856;2022-12-11T22:52:17;37.25;;;21.88;;
51020;SDS011;38907;45.562;8.856;2022-12-11T22:57:19;38.08;;;20.63;;
51020;SDS011;38907;45.562;8.856;2022-12-11T23:02:21;35.30;;;20.10;;
51020;SDS011;38907;45.562;8.856;2022-12-11T23:07:25;35.35;;;21.25;;
51020;SDS011;38907;45.562;8.856;2022-12-11T23:17:28;36.40;;;21.15;;
51020;SDS011;38907;45.562;8.856;2022-12-11T23:22:32;34.85;;;19.73;;
51020;SDS011;38907;45.562;8.856;2022-12-11T23:27:34;35.63;;;18.85;;
51020;SDS011;38907;45.562;8.856;2022-12-11T23:32:35;31.67;;;19.08;;
51020;SDS011;38907;45.562;8.856;2022-12-11T23:37:39;32.25;;;18.58;;
51020;SDS011;38907;45.562;8.856;2022-12-11T23:42:40;31.50;;;18.45;;
51020;SDS011;38907;45.562;8.856;2022-12-11T23:47:42;29.58;;;18.35;;
51020;SDS011;38907;45.562;8.856;2022-12-11T23:52:46;33.45;;;18.67;;
51020;SDS011;38907;45.562;8.856;2022-12-11T23:57:48;31.45;;;18.63;;
